Terminal Aerodrome Forecast
Issued by NWS

Home | Current Version | Previous Version | Text Only | Print | Product List | Glossary On
Versions: 1 2 3 4 5 6 7 8 9 10 11 12 13 14 15 16 17 18 19 20
000
FTAK31 PANC 241140 CCA
TAFAIL
TAF COR
PAIL 241140Z 2412/2512 VRB04KT 6SM -SN BR OVC035
      TEMPO 2412/2414 4SM -SN BKN025
     FM241800 33008KT P6SM SCT025 BKN045
     FM242100 31008KT P6SM SCT060=

USA.gov is the U.S. government's official web portal to all federal, state and local government web resources and services.